sensor_id;sensor_type;location;lat;lon;timestamp;temperature;humidity
33645;DHT22;19986;48.190;16.366;2023-03-21T00:01:26;14.40;99.90
33645;DHT22;19986;48.190;16.366;2023-03-21T00:03:52;14.40;99.90
33645;DHT22;19986;48.190;16.366;2023-03-21T00:06:18;14.40;99.90
33645;DHT22;19986;48.190;16.366;2023-03-21T00:08:44;14.50;99.90
33645;DHT22;19986;48.190;16.366;2023-03-21T00:11:10;14.40;99.90
33645;DHT22;19986;48.190;16.366;2023-03-21T00:13:38;14.40;99.90
33645;DHT22;19986;48.190;16.366;2023-03-21T00:16:15;14.40;99.90
33645;DHT22;19986;48.190;16.366;2023-03-21T00:18:44;14.40;99.90
33645;DHT22;19986;48.190;16.366;2023-03-21T00:21:13;14.50;99.90
33645;DHT22;19986;48.190;16.366;2023-03-21T00:23:40;14.40;99.90
33645;DHT22;19986;48.190;16.366;2023-03-21T00:26:06;14.40;99.90
33645;DHT22;19986;48.190;16.366;2023-03-21T00:28:42;14.40;99.90
33645;DHT22;19986;48.190;16.366;2023-03-21T00:31:08;14.50;99.90
33645;DHT22;19986;48.190;16.366;2023-03-21T00:33:35;14.50;99.90
33645;DHT22;19986;48.190;16.366;2023-03-21T00:36:03;14.50;99.90
33645;DHT22;19986;48.190;16.366;2023-03-21T00:38:30;14.50;99.90
33645;DHT22;19986;48.190;16.366;2023-03-21T00:40:56;14.50;99.90
33645;DHT22;19986;48.190;16.366;2023-03-21T00:43:21;14.50;99.90
33645;DHT22;19986;48.190;16.366;2023-03-21T00:45:50;14.50;99.90
33645;DHT22;19986;48.190;16.366;2023-03-21T00:48:16;14.50;99.90
33645;DHT22;19986;48.190;16.366;2023-03-21T00:50:44;14.50;99.90
33645;DHT22;19986;48.190;16.366;2023-03-21T00:53:12;14.50;99.90
33645;DHT22;19986;48.190;16.366;2023-03-21T00:55:38;14.50;99.90
33645;DHT22;19986;48.190;16.366;2023-03-21T00:58:04;14.50;99.90
33645;DHT22;19986;48.190;16.366;2023-03-21T01:00:31;14.50;99.90
33645;DHT22;19986;48.190;16.366;2023-03-21T01:02:59;14.50;99.90
33645;DHT22;19986;48.190;16.366;2023-03-21T01:05:33;14.50;99.90
33645;DHT22;19986;48.190;16.366;2023-03-21T01:08:19;14.50;99.90
33645;DHT22;19986;48.190;16.366;2023-03-21T01:10:46;14.50;99.90
33645;DHT22;19986;48.190;16.366;2023-03-21T01:13:16;14.50;99.90
33645;DHT22;19986;48.190;16.366;2023-03-21T01:15:47;14.60;99.90
33645;DHT22;19986;48.190;16.366;2023-03-21T01:18:16;14.60;99.90
33645;DHT22;19986;48.190;16.366;2023-03-21T01:20:44;14.60;99.90
33645;DHT22;19986;48.190;16.366;2023-03-21T01:23:12;14.70;99.90
33645;DHT22;19986;48.190;16.366;2023-03-21T01:25:39;14.60;99.90
33645;DHT22;19986;48.190;16.366;2023-03-21T01:28:05;14.60;99.90
33645;DHT22;19986;48.190;16.366;2023-03-21T01:30:31;14.70;99.90
33645;DHT22;19986;48.190;16.366;2023-03-21T01:32:57;14.70;99.90
33645;DHT22;19986;48.190;16.366;2023-03-21T01:35:23;14.70;99.90
33645;DHT22;19986;48.190;16.366;2023-03-21T01:37:50;14.70;99.90
33645;DHT22;19986;48.190;16.366;2023-03-21T01:40:26;14.80;99.90
33645;DHT22;19986;48.190;16.366;2023-03-21T01:42:53;14.80;99.90
33645;DHT22;19986;48.190;16.366;2023-03-21T01:48:23;14.70;99.90
33645;DHT22;19986;48.190;16.366;2023-03-21T01:50:51;14.70;99.90
33645;DHT22;19986;48.190;16.366;2023-03-21T01:53:24;14.70;99.90
33645;DHT22;19986;48.190;16.366;2023-03-21T01:56:07;14.70;99.90
33645;DHT22;19986;48.190;16.366;2023-03-21T01:58:37;14.80;99.90
33645;DHT22;19986;48.190;16.366;2023-03-21T02:01:04;14.70;99.90
33645;DHT22;19986;48.190;16.366;2023-03-21T02:03:31;14.70;99.90
33645;DHT22;19986;48.190;16.366;2023-03-21T02:06:12;14.70;99.90
33645;DHT22;19986;48.190;16.366;2023-03-21T02:08:40;14.70;99.90
33645;DHT22;19986;48.190;16.366;2023-03-21T02:11:07;14.70;99.90
33645;DHT22;19986;48.190;16.366;2023-03-21T02:13:35;14.70;99.90
33645;DHT22;19986;48.190;16.366;2023-03-21T02:19:15;14.70;99.90
33645;DHT22;19986;48.190;16.366;2023-03-21T02:27:33;14.70;99.90
33645;DHT22;19986;48.190;16.366;2023-03-21T02:39:28;14.70;99.90
33645;DHT22;19986;48.190;16.366;2023-03-21T02:44:38;14.70;99.90
33645;DHT22;19986;48.190;16.366;2023-03-21T02:47:12;14.80;99.90
33645;DHT22;19986;48.190;16.366;2023-03-21T02:50:03;14.80;99.90
33645;DHT22;19986;48.190;16.366;2023-03-21T02:52:32;14.80;99.90
33645;DHT22;19986;48.190;16.366;2023-03-21T02:54:59;14.70;99.90
33645;DHT22;19986;48.190;16.366;2023-03-21T02:57:30;14.70;99.90
33645;DHT22;19986;48.190;16.366;2023-03-21T02:59:57;14.70;99.90
33645;DHT22;19986;48.190;16.366;2023-03-21T03:02:26;14.70;99.90
33645;DHT22;19986;48.190;16.366;2023-03-21T03:04:52;14.60;99.90
33645;DHT22;19986;48.190;16.366;2023-03-21T03:07:39;14.50;99.90
33645;DHT22;19986;48.190;16.366;2023-03-21T03:10:25;14.50;99.90
33645;DHT22;19986;48.190;16.366;2023-03-21T03:15:49;14.40;99.90
33645;DHT22;19986;48.190;16.366;2023-03-21T03:21:13;14.40;99.90
33645;DHT22;19986;48.190;16.366;2023-03-21T03:23:56;14.30;99.90
33645;DHT22;19986;48.190;16.366;2023-03-21T03:26:28;14.20;99.90
33645;DHT22;19986;48.190;16.366;2023-03-21T03:29:00;14.20;99.90
33645;DHT22;19986;48.190;16.366;2023-03-21T03:31:32;14.20;99.90
33645;DHT22;19986;48.190;16.366;2023-03-21T03:34:03;14.20;99.90
33645;DHT22;19986;48.190;16.366;2023-03-21T03:36:35;14.20;99.90
33645;DHT22;19986;48.190;16.366;2023-03-21T03:39:06;14.20;99.90
33645;DHT22;19986;48.190;16.366;2023-03-21T03:41:41;14.30;99.90
33645;DHT22;19986;48.190;16.366;2023-03-21T03:44:08;14.30;99.90
33645;DHT22;19986;48.190;16.366;2023-03-21T03:49:24;14.30;99.90
33645;DHT22;19986;48.190;16.366;2023-03-21T03:54:30;14.30;99.90
33645;DHT22;19986;48.190;16.366;2023-03-21T03:56:58;14.30;99.90
33645;DHT22;19986;48.190;16.366;2023-03-21T03:59:24;14.30;99.90
33645;DHT22;19986;48.190;16.366;2023-03-21T04:01:50;14.30;99.90
33645;DHT22;19986;48.190;16.366;2023-03-21T04:04:16;14.30;99.90
33645;DHT22;19986;48.190;16.366;2023-03-21T04:06:43;14.30;99.90
33645;DHT22;19986;48.190;16.366;2023-03-21T04:09:16;14.30;99.90
33645;DHT22;19986;48.190;16.366;2023-03-21T04:11:43;14.20;99.90
33645;DHT22;19986;48.190;16.366;2023-03-21T04:14:09;14.20;99.90
33645;DHT22;19986;48.190;16.366;2023-03-21T04:16:35;14.20;99.90
33645;DHT22;19986;48.190;16.366;2023-03-21T04:19:00;14.20;99.90
33645;DHT22;19986;48.190;16.366;2023-03-21T04:21:26;14.20;99.90
33645;DHT22;19986;48.190;16.366;2023-03-21T04:23:53;14.10;99.90
33645;DHT22;19986;48.190;16.366;2023-03-21T04:26:20;14.10;99.90
33645;DHT22;19986;48.190;16.366;2023-03-21T04:28:47;14.10;99.90
33645;DHT22;19986;48.190;16.366;2023-03-21T04:31:13;14.00;99.90
33645;DHT22;19986;48.190;16.366;2023-03-21T04:33:43;14.00;99.90
33645;DHT22;19986;48.190;16.366;2023-03-21T04:36:10;13.90;99.90
33645;DHT22;19986;48.190;16.366;2023-03-21T04:38:50;13.90;99.90
33645;DHT22;19986;48.190;16.366;2023-03-21T04:41:17;13.80;99.90
33645;DHT22;19986;48.190;16.366;2023-03-21T04:43:44;13.80;99.90
33645;DHT22;19986;48.190;16.366;2023-03-21T04:46:10;13.80;99.90
33645;DHT22;19986;48.190;16.366;2023-03-21T04:48:36;13.70;99.90
33645;DHT22;19986;48.190;16.366;2023-03-21T04:51:02;13.70;99.90
33645;DHT22;19986;48.190;16.366;2023-03-21T04:53:28;13.70;99.90
33645;DHT22;19986;48.190;16.366;2023-03-21T04:55:54;13.70;99.90
33645;DHT22;19986;48.190;16.366;2023-03-21T04:58:22;13.60;99.90
33645;DHT22;19986;48.190;16.366;2023-03-21T05:00:48;13.60;99.90
33645;DHT22;19986;48.190;16.366;2023-03-21T05:03:17;13.60;99.90
33645;DHT22;19986;48.190;16.366;2023-03-21T05:05:45;13.60;99.90
33645;DHT22;19986;48.190;16.366;2023-03-21T05:08:13;13.60;99.90
33645;DHT22;19986;48.190;16.366;2023-03-21T05:10:39;13.60;99.90
33645;DHT22;19986;48.190;16.366;2023-03-21T05:13:05;13.60;99.90
33645;DHT22;19986;48.190;16.366;2023-03-21T05:15:31;13.50;99.90
33645;DHT22;19986;48.190;16.366;2023-03-21T05:17:57;13.60;99.90
33645;DHT22;19986;48.190;16.366;2023-03-21T05:20:39;13.60;99.90
33645;DHT22;19986;48.190;16.366;2023-03-21T05:23:09;13.60;99.90
33645;DHT22;19986;48.190;16.366;2023-03-21T05:25:55;13.60;99.90
33645;DHT22;19986;48.190;16.366;2023-03-21T05:28:21;13.60;99.90
33645;DHT22;19986;48.190;16.366;2023-03-21T05:30:47;13.70;99.90
33645;DHT22;19986;48.190;16.366;2023-03-21T05:33:13;13.80;99.90
33645;DHT22;19986;48.190;16.366;2023-03-21T05:35:39;13.80;99.90
33645;DHT22;19986;48.190;16.366;2023-03-21T05:38:05;13.80;99.90
33645;DHT22;19986;48.190;16.366;2023-03-21T05:40:30;13.80;99.90
33645;DHT22;19986;48.190;16.366;2023-03-21T05:42:56;13.90;99.90
33645;DHT22;19986;48.190;16.366;2023-03-21T05:45:22;13.90;99.90
33645;DHT22;19986;48.190;16.366;2023-03-21T05:47:48;13.90;99.90
33645;DHT22;19986;48.190;16.366;2023-03-21T05:50:14;13.90;99.90
33645;DHT22;19986;48.190;16.366;2023-03-21T05:52:40;14.00;99.90
33645;DHT22;19986;48.190;16.366;2023-03-21T05:55:06;13.90;99.90
33645;DHT22;19986;48.190;16.366;2023-03-21T05:57:32;14.00;99.90
33645;DHT22;19986;48.190;16.366;2023-03-21T06:00:05;14.00;99.90
33645;DHT22;19986;48.190;16.366;2023-03-21T06:02:31;14.00;99.90
33645;DHT22;19986;48.190;16.366;2023-03-21T06:04:58;14.10;99.90
33645;DHT22;19986;48.190;16.366;2023-03-21T06:07:24;14.30;99.90
33645;DHT22;19986;48.190;16.366;2023-03-21T06:09:50;14.40;99.90
33645;DHT22;19986;48.190;16.366;2023-03-21T06:12:16;14.50;99.90
33645;DHT22;19986;48.190;16.366;2023-03-21T06:14:41;14.50;99.90
33645;DHT22;19986;48.190;16.366;2023-03-21T06:17:07;14.60;99.90
33645;DHT22;19986;48.190;16.366;2023-03-21T06:19:33;14.60;99.90
33645;DHT22;19986;48.190;16.366;2023-03-21T06:21:59;14.70;99.90
33645;DHT22;19986;48.190;16.366;2023-03-21T06:24:25;14.60;99.90
33645;DHT22;19986;48.190;16.366;2023-03-21T06:26:51;14.60;99.90
33645;DHT22;19986;48.190;16.366;2023-03-21T06:29:17;14.50;99.90
33645;DHT22;19986;48.190;16.366;2023-03-21T06:31:43;14.40;99.90
33645;DHT22;19986;48.190;16.366;2023-03-21T06:34:09;14.50;99.90
33645;DHT22;19986;48.190;16.366;2023-03-21T06:36:36;14.50;99.90
33645;DHT22;19986;48.190;16.366;2023-03-21T06:39:03;14.40;99.90
33645;DHT22;19986;48.190;16.366;2023-03-21T06:41:29;14.40;99.90
33645;DHT22;19986;48.190;16.366;2023-03-21T06:43:54;14.40;99.90
33645;DHT22;19986;48.190;16.366;2023-03-21T06:46:20;14.40;99.90
33645;DHT22;19986;48.190;16.366;2023-03-21T06:48:46;14.40;99.90
33645;DHT22;19986;48.190;16.366;2023-03-21T06:51:14;14.40;99.90
33645;DHT22;19986;48.190;16.366;2023-03-21T06:53:40;14.60;99.90
33645;DHT22;19986;48.190;16.366;2023-03-21T06:56:08;14.60;99.90
33645;DHT22;19986;48.190;16.366;2023-03-21T06:58:34;14.60;99.90
33645;DHT22;19986;48.190;16.366;2023-03-21T07:01:01;14.60;99.90
33645;DHT22;19986;48.190;16.366;2023-03-21T07:03:28;14.70;99.90
33645;DHT22;19986;48.190;16.366;2023-03-21T07:05:54;14.80;99.90
33645;DHT22;19986;48.190;16.366;2023-03-21T07:08:20;14.80;99.90
33645;DHT22;19986;48.190;16.366;2023-03-21T07:10:46;14.90;99.90
33645;DHT22;19986;48.190;16.366;2023-03-21T07:13:12;14.90;99.90
33645;DHT22;19986;48.190;16.366;2023-03-21T07:15:39;14.90;99.90
33645;DHT22;19986;48.190;16.366;2023-03-21T07:18:09;14.90;99.90
33645;DHT22;19986;48.190;16.366;2023-03-21T07:20:35;15.00;99.90
33645;DHT22;19986;48.190;16.366;2023-03-21T07:23:04;15.10;99.90
33645;DHT22;19986;48.190;16.366;2023-03-21T07:25:30;15.20;99.90
33645;DHT22;19986;48.190;16.366;2023-03-21T07:27:56;15.20;99.90
33645;DHT22;19986;48.190;16.366;2023-03-21T07:30:22;15.20;99.90
33645;DHT22;19986;48.190;16.366;2023-03-21T07:32:48;15.30;99.90
33645;DHT22;19986;48.190;16.366;2023-03-21T07:35:16;15.20;99.90
33645;DHT22;19986;48.190;16.366;2023-03-21T07:37:42;15.20;99.90
33645;DHT22;19986;48.190;16.366;2023-03-21T07:40:09;15.30;99.90
33645;DHT22;19986;48.190;16.366;2023-03-21T07:42:36;15.30;99.90
33645;DHT22;19986;48.190;16.366;2023-03-21T07:45:03;15.40;99.90
33645;DHT22;19986;48.190;16.366;2023-03-21T07:47:30;15.40;99.90
33645;DHT22;19986;48.190;16.366;2023-03-21T07:49:56;15.50;99.90
33645;DHT22;19986;48.190;16.366;2023-03-21T07:52:22;15.60;99.90
33645;DHT22;19986;48.190;16.366;2023-03-21T07:54:48;15.60;99.90
33645;DHT22;19986;48.190;16.366;2023-03-21T07:57:14;15.60;99.90
33645;DHT22;19986;48.190;16.366;2023-03-21T07:59:39;15.70;99.90
33645;DHT22;19986;48.190;16.366;2023-03-21T08:02:06;15.70;99.90
33645;DHT22;19986;48.190;16.366;2023-03-21T08:04:31;15.80;99.90
33645;DHT22;19986;48.190;16.366;2023-03-21T08:07:00;15.90;99.90
33645;DHT22;19986;48.190;16.366;2023-03-21T08:09:26;16.00;99.90
33645;DHT22;19986;48.190;16.366;2023-03-21T08:11:51;16.10;99.90
33645;DHT22;19986;48.190;16.366;2023-03-21T08:14:17;16.20;99.90
33645;DHT22;19986;48.190;16.366;2023-03-21T08:16:43;16.20;99.90
33645;DHT22;19986;48.190;16.366;2023-03-21T08:19:09;16.20;99.90
33645;DHT22;19986;48.190;16.366;2023-03-21T08:21:36;16.30;99.90
33645;DHT22;19986;48.190;16.366;2023-03-21T08:24:04;16.30;99.90
33645;DHT22;19986;48.190;16.366;2023-03-21T08:26:31;16.40;99.90
33645;DHT22;19986;48.190;16.366;2023-03-21T08:28:58;16.50;99.90
33645;DHT22;19986;48.190;16.366;2023-03-21T08:31:24;16.60;99.90
33645;DHT22;19986;48.190;16.366;2023-03-21T08:33:50;16.80;99.90
33645;DHT22;19986;48.190;16.366;2023-03-21T08:36:22;16.90;99.90
33645;DHT22;19986;48.190;16.366;2023-03-21T08:38:49;17.20;99.90
33645;DHT22;19986;48.190;16.366;2023-03-21T08:41:19;17.60;99.90
33645;DHT22;19986;48.190;16.366;2023-03-21T08:43:47;17.90;99.90
33645;DHT22;19986;48.190;16.366;2023-03-21T08:46:13;18.20;99.80
33645;DHT22;19986;48.190;16.366;2023-03-21T08:48:40;18.60;99.40
33645;DHT22;19986;48.190;16.366;2023-03-21T08:51:07;18.90;99.20
33645;DHT22;19986;48.190;16.366;2023-03-21T08:53:33;19.10;98.80
33645;DHT22;19986;48.190;16.366;2023-03-21T08:55:59;19.40;98.40
33645;DHT22;19986;48.190;16.366;2023-03-21T08:58:26;19.50;97.90
33645;DHT22;19986;48.190;16.366;2023-03-21T09:00:52;19.50;97.10
33645;DHT22;19986;48.190;16.366;2023-03-21T09:03:18;19.40;97.20
33645;DHT22;19986;48.190;16.366;2023-03-21T09:05:44;19.40;97.90
33645;DHT22;19986;48.190;16.366;2023-03-21T09:08:11;19.30;97.90
33645;DHT22;19986;48.190;16.366;2023-03-21T09:10:38;19.30;98.10
33645;DHT22;19986;48.190;16.366;2023-03-21T09:13:04;19.30;98.20
33645;DHT22;19986;48.190;16.366;2023-03-21T09:15:30;19.20;98.70
33645;DHT22;19986;48.190;16.366;2023-03-21T09:17:57;19.30;98.40
33645;DHT22;19986;48.190;16.366;2023-03-21T09:20:37;19.50;98.10
33645;DHT22;19986;48.190;16.366;2023-03-21T09:23:05;19.50;97.50
33645;DHT22;19986;48.190;16.366;2023-03-21T09:25:31;19.40;97.30
33645;DHT22;19986;48.190;16.366;2023-03-21T09:28:00;19.30;97.70
33645;DHT22;19986;48.190;16.366;2023-03-21T09:30:27;19.50;97.60
33645;DHT22;19986;48.190;16.366;2023-03-21T09:32:54;19.70;97.40
33645;DHT22;19986;48.190;16.366;2023-03-21T09:35:20;19.60;97.50
33645;DHT22;19986;48.190;16.366;2023-03-21T09:37:47;19.70;97.20
33645;DHT22;19986;48.190;16.366;2023-03-21T09:40:20;19.80;97.00
33645;DHT22;19986;48.190;16.366;2023-03-21T09:45:46;19.60;96.70
33645;DHT22;19986;48.190;16.366;2023-03-21T09:48:21;19.40;97.10
33645;DHT22;19986;48.190;16.366;2023-03-21T09:50:54;19.00;97.10
33645;DHT22;19986;48.190;16.366;2023-03-21T09:53:29;18.80;97.40
33645;DHT22;19986;48.190;16.366;2023-03-21T09:55:59;18.70;97.50
33645;DHT22;19986;48.190;16.366;2023-03-21T10:01:09;18.90;97.60
33645;DHT22;19986;48.190;16.366;2023-03-21T10:03:49;18.90;97.30
33645;DHT22;19986;48.190;16.366;2023-03-21T10:06:18;19.00;97.40
33645;DHT22;19986;48.190;16.366;2023-03-21T10:08:47;18.90;97.40
33645;DHT22;19986;48.190;16.366;2023-03-21T10:11:18;18.90;97.70
33645;DHT22;19986;48.190;16.366;2023-03-21T10:16:28;18.90;97.10
33645;DHT22;19986;48.190;16.366;2023-03-21T10:18:56;18.90;97.30
33645;DHT22;19986;48.190;16.366;2023-03-21T10:21:25;19.00;97.10
33645;DHT22;19986;48.190;16.366;2023-03-21T10:23:53;19.10;96.80
33645;DHT22;19986;48.190;16.366;2023-03-21T10:26:23;19.10;96.50
33645;DHT22;19986;48.190;16.366;2023-03-21T10:28:51;19.00;96.20
33645;DHT22;19986;48.190;16.366;2023-03-21T10:31:22;19.00;96.40
33645;DHT22;19986;48.190;16.366;2023-03-21T10:33:55;19.20;96.60
33645;DHT22;19986;48.190;16.366;2023-03-21T10:36:28;19.30;95.60
33645;DHT22;19986;48.190;16.366;2023-03-21T10:39:01;19.30;96.00
33645;DHT22;19986;48.190;16.366;2023-03-21T10:41:27;19.20;96.10
33645;DHT22;19986;48.190;16.366;2023-03-21T10:44:14;19.00;96.00
33645;DHT22;19986;48.190;16.366;2023-03-21T10:46:54;19.10;96.30
33645;DHT22;19986;48.190;16.366;2023-03-21T10:49:20;19.30;96.20
33645;DHT22;19986;48.190;16.366;2023-03-21T10:51:48;19.50;96.40
33645;DHT22;19986;48.190;16.366;2023-03-21T10:54:19;19.80;96.40
33645;DHT22;19986;48.190;16.366;2023-03-21T10:57:10;20.00;96.10
33645;DHT22;19986;48.190;16.366;2023-03-21T10:59:43;20.10;95.70
33645;DHT22;19986;48.190;16.366;2023-03-21T11:02:28;20.00;95.80
33645;DHT22;19986;48.190;16.366;2023-03-21T11:04:55;19.90;95.80
33645;DHT22;19986;48.190;16.366;2023-03-21T11:07:27;19.80;95.90
33645;DHT22;19986;48.190;16.366;2023-03-21T11:09:58;19.50;96.10
33645;DHT22;19986;48.190;16.366;2023-03-21T11:12:47;19.40;96.30
33645;DHT22;19986;48.190;16.366;2023-03-21T11:17:54;19.40;96.00
33645;DHT22;19986;48.190;16.366;2023-03-21T11:20:21;19.40;96.30
33645;DHT22;19986;48.190;16.366;2023-03-21T11:22:53;19.50;96.10
33645;DHT22;19986;48.190;16.366;2023-03-21T11:25:40;19.50;96.30
33645;DHT22;19986;48.190;16.366;2023-03-21T11:28:15;19.70;95.90
33645;DHT22;19986;48.190;16.366;2023-03-21T11:30:59;19.70;95.80
33645;DHT22;19986;48.190;16.366;2023-03-21T11:33:34;19.70;95.90
33645;DHT22;19986;48.190;16.366;2023-03-21T11:36:47;19.50;96.40
33645;DHT22;19986;48.190;16.366;2023-03-21T11:38:51;19.40;96.20
33645;DHT22;19986;48.190;16.366;2023-03-21T11:41:32;19.20;96.50
33645;DHT22;19986;48.190;16.366;2023-03-21T11:43:59;19.40;96.60
33645;DHT22;19986;48.190;16.366;2023-03-21T11:46:28;19.80;96.60
33645;DHT22;19986;48.190;16.366;2023-03-21T11:48:55;19.90;96.20
33645;DHT22;19986;48.190;16.366;2023-03-21T11:51:30;20.00;96.10
33645;DHT22;19986;48.190;16.366;2023-03-21T11:56:53;19.90;95.60
33645;DHT22;19986;48.190;16.366;2023-03-21T11:59:42;19.80;96.00
33645;DHT22;19986;48.190;16.366;2023-03-21T12:02:48;19.70;95.70
33645;DHT22;19986;48.190;16.366;2023-03-21T12:05:31;19.70;95.90
33645;DHT22;19986;48.190;16.366;2023-03-21T12:08:06;20.40;95.30
33645;DHT22;19986;48.190;16.366;2023-03-21T12:24:22;20.90;93.50
33645;DHT22;19986;48.190;16.366;2023-03-21T12:26:52;20.60;94.10
33645;DHT22;19986;48.190;16.366;2023-03-21T12:41:11;20.90;93.70
33645;DHT22;19986;48.190;16.366;2023-03-21T12:46:21;20.90;93.70
33645;DHT22;19986;48.190;16.366;2023-03-21T12:48:52;20.90;93.60
33645;DHT22;19986;48.190;16.366;2023-03-21T12:51:25;20.90;93.60
33645;DHT22;19986;48.190;16.366;2023-03-21T12:54:14;20.80;93.10
33645;DHT22;19986;48.190;16.366;2023-03-21T12:59:53;20.70;92.90
33645;DHT22;19986;48.190;16.366;2023-03-21T13:02:52;20.70;92.90
33645;DHT22;19986;48.190;16.366;2023-03-21T13:05:32;20.70;93.00
33645;DHT22;19986;48.190;16.366;2023-03-21T13:08:13;20.70;92.50
33645;DHT22;19986;48.190;16.366;2023-03-21T13:10:43;20.80;92.70
33645;DHT22;19986;48.190;16.366;2023-03-21T13:16:01;20.80;92.80
33645;DHT22;19986;48.190;16.366;2023-03-21T13:27:01;20.60;92.60
33645;DHT22;19986;48.190;16.366;2023-03-21T13:29:32;20.60;92.90
33645;DHT22;19986;48.190;16.366;2023-03-21T13:32:09;20.50;93.20
33645;DHT22;19986;48.190;16.366;2023-03-21T13:34:37;20.50;93.40
33645;DHT22;19986;48.190;16.366;2023-03-21T13:37:04;20.60;93.50
33645;DHT22;19986;48.190;16.366;2023-03-21T13:39:30;20.60;93.40
33645;DHT22;19986;48.190;16.366;2023-03-21T13:42:03;20.70;93.50
33645;DHT22;19986;48.190;16.366;2023-03-21T13:44:38;20.70;93.00
33645;DHT22;19986;48.190;16.366;2023-03-21T13:50:22;20.70;93.00
33645;DHT22;19986;48.190;16.366;2023-03-21T13:53:19;20.60;92.80
33645;DHT22;19986;48.190;16.366;2023-03-21T13:55:57;20.60;92.70
33645;DHT22;19986;48.190;16.366;2023-03-21T14:01:20;20.70;93.00
33645;DHT22;19986;48.190;16.366;2023-03-21T14:03:48;20.70;92.80
33645;DHT22;19986;48.190;16.366;2023-03-21T14:06:16;20.80;92.60
33645;DHT22;19986;48.190;16.366;2023-03-21T14:08:45;20.90;92.70
33645;DHT22;19986;48.190;16.366;2023-03-21T14:11:16;21.00;92.60
33645;DHT22;19986;48.190;16.366;2023-03-21T14:13:44;21.00;92.70
33645;DHT22;19986;48.190;16.366;2023-03-21T14:16:16;20.90;92.80
33645;DHT22;19986;48.190;16.366;2023-03-21T14:18:55;20.80;92.70
33645;DHT22;19986;48.190;16.366;2023-03-21T14:21:24;20.70;93.20
33645;DHT22;19986;48.190;16.366;2023-03-21T14:24:05;20.70;92.70
33645;DHT22;19986;48.190;16.366;2023-03-21T14:26:34;20.60;92.80
33645;DHT22;19986;48.190;16.366;2023-03-21T14:29:05;20.50;92.80
33645;DHT22;19986;48.190;16.366;2023-03-21T14:31:32;20.40;92.60
33645;DHT22;19986;48.190;16.366;2023-03-21T14:34:00;20.30;92.80
33645;DHT22;19986;48.190;16.366;2023-03-21T14:36:31;20.20;92.80
33645;DHT22;19986;48.190;16.366;2023-03-21T14:39:06;20.10;93.10
33645;DHT22;19986;48.190;16.366;2023-03-21T14:41:34;20.10;93.20
33645;DHT22;19986;48.190;16.366;2023-03-21T14:44:23;20.10;93.00
33645;DHT22;19986;48.190;16.366;2023-03-21T14:47:01;20.10;93.10
33645;DHT22;19986;48.190;16.366;2023-03-21T14:49:30;20.20;93.20
33645;DHT22;19986;48.190;16.366;2023-03-21T14:51:59;20.20;92.90
33645;DHT22;19986;48.190;16.366;2023-03-21T14:54:26;20.20;93.10
33645;DHT22;19986;48.190;16.366;2023-03-21T14:57:00;20.30;93.00
33645;DHT22;19986;48.190;16.366;2023-03-21T14:59:37;20.20;92.90
33645;DHT22;19986;48.190;16.366;2023-03-21T15:02:24;20.20;93.20
33645;DHT22;19986;48.190;16.366;2023-03-21T15:04:53;20.30;92.90
33645;DHT22;19986;48.190;16.366;2023-03-21T15:07:31;20.20;93.00
33645;DHT22;19986;48.190;16.366;2023-03-21T15:10:01;20.30;93.20
33645;DHT22;19986;48.190;16.366;2023-03-21T15:12:30;20.50;93.20
33645;DHT22;19986;48.190;16.366;2023-03-21T15:14:57;20.50;93.20
33645;DHT22;19986;48.190;16.366;2023-03-21T15:17:23;20.60;93.10
33645;DHT22;19986;48.190;16.366;2023-03-21T15:19:50;20.60;93.20
33645;DHT22;19986;48.190;16.366;2023-03-21T15:22:32;20.50;93.10
33645;DHT22;19986;48.190;16.366;2023-03-21T15:25:02;20.50;93.20
33645;DHT22;19986;48.190;16.366;2023-03-21T15:27:31;20.60;93.50
33645;DHT22;19986;48.190;16.366;2023-03-21T15:29:59;20.60;93.20
33645;DHT22;19986;48.190;16.366;2023-03-21T15:32:26;20.50;93.30
33645;DHT22;19986;48.190;16.366;2023-03-21T15:34:54;20.50;93.40
33645;DHT22;19986;48.190;16.366;2023-03-21T15:37:25;20.40;93.40
33645;DHT22;19986;48.190;16.366;2023-03-21T15:39:52;20.30;93.40
33645;DHT22;19986;48.190;16.366;2023-03-21T15:44:48;20.10;93.70
33645;DHT22;19986;48.190;16.366;2023-03-21T15:47:40;20.10;93.80
33645;DHT22;19986;48.190;16.366;2023-03-21T15:50:10;20.00;93.90
33645;DHT22;19986;48.190;16.366;2023-03-21T15:52:36;19.90;93.90
33645;DHT22;19986;48.190;16.366;2023-03-21T15:55:17;19.90;94.10
33645;DHT22;19986;48.190;16.366;2023-03-21T15:57:47;19.80;94.10
33645;DHT22;19986;48.190;16.366;2023-03-21T16:00:20;19.70;94.10
33645;DHT22;19986;48.190;16.366;2023-03-21T16:02:49;19.70;94.20
33645;DHT22;19986;48.190;16.366;2023-03-21T16:07:53;19.70;94.30
33645;DHT22;19986;48.190;16.366;2023-03-21T16:10:37;19.70;94.30
33645;DHT22;19986;48.190;16.366;2023-03-21T16:13:03;19.70;94.30
33645;DHT22;19986;48.190;16.366;2023-03-21T16:15:30;19.70;94.30
33645;DHT22;19986;48.190;16.366;2023-03-21T16:17:58;19.70;94.30
33645;DHT22;19986;48.190;16.366;2023-03-21T16:20:27;19.70;94.30
33645;DHT22;19986;48.190;16.366;2023-03-21T16:22:53;19.70;94.30
33645;DHT22;19986;48.190;16.366;2023-03-21T16:25:20;19.70;94.20
33645;DHT22;19986;48.190;16.366;2023-03-21T16:27:47;19.60;94.20
33645;DHT22;19986;48.190;16.366;2023-03-21T16:30:15;19.60;94.30
33645;DHT22;19986;48.190;16.366;2023-03-21T16:32:42;19.60;94.50
33645;DHT22;19986;48.190;16.366;2023-03-21T16:35:08;19.50;94.40
33645;DHT22;19986;48.190;16.366;2023-03-21T16:37:35;19.60;94.40
33645;DHT22;19986;48.190;16.366;2023-03-21T16:40:02;19.50;94.40
33645;DHT22;19986;48.190;16.366;2023-03-21T16:42:30;19.50;94.60
33645;DHT22;19986;48.190;16.366;2023-03-21T16:44:56;19.50;94.60
33645;DHT22;19986;48.190;16.366;2023-03-21T16:47:22;19.50;94.50
33645;DHT22;19986;48.190;16.366;2023-03-21T16:49:48;19.40;94.50
33645;DHT22;19986;48.190;16.366;2023-03-21T16:52:15;19.30;94.50
33645;DHT22;19986;48.190;16.366;2023-03-21T16:54:41;19.30;94.50
33645;DHT22;19986;48.190;16.366;2023-03-21T16:57:24;19.20;94.50
33645;DHT22;19986;48.190;16.366;2023-03-21T16:59:54;19.20;94.60
33645;DHT22;19986;48.190;16.366;2023-03-21T17:02:21;19.10;94.60
33645;DHT22;19986;48.190;16.366;2023-03-21T17:04:48;19.10;94.50
33645;DHT22;19986;48.190;16.366;2023-03-21T17:07:14;19.00;94.50
33645;DHT22;19986;48.190;16.366;2023-03-21T17:09:41;19.00;94.60
33645;DHT22;19986;48.190;16.366;2023-03-21T17:12:15;18.90;94.60
33645;DHT22;19986;48.190;16.366;2023-03-21T17:14:43;18.90;94.70